Terminal Aerodrome Forecast
Issued by NWS

Home | Current Version | Previous Version | Text Only | Print | Product List | Glossary On
Versions: 1 2 3 4 5 6 7 8 9 10 11 12 13 14 15 16 17 18 19 20 21
000
FTUS45 KTFX 171700
TAFGTF
TAF
KGTF 171726Z 1718/1818 22015KT P6SM OVC070
     FM180200 22009KT P6SM SCT050 BKN070 PROB30 1809/1812 -SHRA
      OVC040
     FM181500 23020G30KT P6SM SCT080 BKN120=

USA.gov is the U.S. government's official web portal to all federal, state and local government web resources and services.